createdAt,value
2022-12-03T00:02:21.539Z,74.47
2022-12-03T00:04:48.535Z,74.28
2022-12-03T00:07:15.467Z,74.65
2022-12-03T00:09:42.959Z,74.36
2022-12-03T00:12:09.963Z,74.30
2022-12-03T00:14:41.250Z,73.99
2022-12-03T00:17:11.340Z,74.60
2022-12-03T00:19:38.221Z,74.42
2022-12-03T00:22:05.175Z,74.27
2022-12-03T00:24:32.279Z,74.32
2022-12-03T00:26:59.215Z,74.19
2022-12-03T00:29:26.130Z,74.65
2022-12-03T00:31:53.106Z,74.55
2022-12-03T00:34:20.042Z,74.37
2022-12-03T00:36:47.017Z,74.45
2022-12-03T00:39:13.965Z,74.41
2022-12-03T00:41:40.888Z,74.77
2022-12-03T00:44:07.885Z,74.34
2022-12-03T00:46:34.846Z,74.51
2022-12-03T00:49:01.848Z,74.80
2022-12-03T00:51:28.848Z,74.45
2022-12-03T00:53:55.729Z,74.66
2022-12-03T00:56:22.661Z,74.74
2022-12-03T00:58:50.039Z,74.20
2022-12-03T01:01:17.022Z,74.71
2022-12-03T01:03:43.916Z,74.34
2022-12-03T01:06:10.838Z,74.07
2022-12-03T01:08:37.739Z,74.39
2022-12-03T01:11:24.739Z,73.90
2022-12-03T01:13:51.659Z,74.89
2022-12-03T01:16:18.568Z,74.58
2022-12-03T01:18:46.476Z,74.17
2022-12-03T01:21:13.386Z,74.75
2022-12-03T01:23:40.358Z,74.38
2022-12-03T01:26:07.248Z,74.49
2022-12-03T01:28:34.354Z,74.39
2022-12-03T01:31:19.752Z,74.92
2022-12-03T01:33:46.730Z,75.27
2022-12-03T01:36:13.612Z,74.47
2022-12-03T01:38:40.620Z,75.08
2022-12-03T01:41:11.712Z,75.28
2022-12-03T01:43:39.106Z,75.17
2022-12-03T01:46:06.157Z,75.44
2022-12-03T01:48:34.414Z,75.31
2022-12-03T01:51:01.489Z,75.57
2022-12-03T01:53:28.410Z,75.50
2022-12-03T01:55:55.307Z,75.56
2022-12-03T01:58:26.674Z,75.47
2022-12-03T02:00:53.889Z,74.99
2022-12-03T02:03:25.673Z,75.06
2022-12-03T02:05:52.649Z,75.19
2022-12-03T02:08:28.607Z,75.07
2022-12-03T02:10:55.706Z,75.51
2022-12-03T02:13:22.631Z,75.52
2022-12-03T02:15:49.707Z,74.87
2022-12-03T02:18:16.635Z,75.35
2022-12-03T02:21:13.332Z,75.08
2022-12-03T02:23:59.240Z,75.13
2022-12-03T02:26:26.214Z,75.08
2022-12-03T02:28:53.097Z,75.66
2022-12-03T02:31:20.130Z,74.84
2022-12-03T02:33:47.155Z,75.00
2022-12-03T02:36:14.163Z,74.94
2022-12-03T02:38:41.182Z,75.00
2022-12-03T02:41:10.535Z,74.90
2022-12-03T02:43:37.644Z,75.20
2022-12-03T02:46:04.767Z,74.85
2022-12-03T02:48:38.651Z,75.00
2022-12-03T02:51:09.402Z,75.18
2022-12-03T02:53:42.466Z,75.06
2022-12-03T02:56:09.582Z,75.51
2022-12-03T02:58:36.469Z,75.67
2022-12-03T03:01:03.552Z,75.04
2022-12-03T03:03:30.745Z,75.31
2022-12-03T03:05:57.762Z,75.34
2022-12-03T03:08:24.900Z,75.65
2022-12-03T03:10:51.802Z,75.40
2022-12-03T03:13:19.574Z,75.15
2022-12-03T03:15:46.542Z,75.84
2022-12-03T03:18:14.870Z,75.07
2022-12-03T03:20:41.867Z,75.40
2022-12-03T03:23:11.827Z,75.33
2022-12-03T03:25:39.558Z,75.96
2022-12-03T03:28:06.549Z,76.10
2022-12-03T03:30:33.745Z,74.75
2022-12-03T03:33:00.679Z,75.14
2022-12-03T03:35:27.614Z,75.25
2022-12-03T03:37:54.805Z,75.59
2022-12-03T03:40:21.769Z,75.32
2022-12-03T03:42:48.775Z,75.67
2022-12-03T03:45:16.703Z,76.21
2022-12-03T03:47:43.634Z,76.25
2022-12-03T03:50:11.140Z,75.84
2022-12-03T03:52:38.096Z,75.86
2022-12-03T03:55:05.667Z,75.97
2022-12-03T03:57:32.709Z,75.91
2022-12-03T03:59:59.856Z,75.57
2022-12-03T04:02:27.807Z,75.56
2022-12-03T04:04:54.902Z,76.27
2022-12-03T04:07:22.135Z,76.57
2022-12-03T04:09:49.171Z,76.99
2022-12-03T04:12:34.639Z,76.28
2022-12-03T04:15:01.585Z,76.34
2022-12-03T04:17:28.491Z,76.69
2022-12-03T04:19:55.486Z,77.23
2022-12-03T04:22:40.535Z,76.84
2022-12-03T04:25:27.048Z,77.11
2022-12-03T04:28:13.002Z,76.83
2022-12-03T04:30:40.061Z,76.88
2022-12-03T04:33:25.546Z,76.94
2022-12-03T04:35:52.699Z,77.36
2022-12-03T04:38:19.699Z,77.14
2022-12-03T04:41:01.660Z,77.08
2022-12-03T04:43:28.989Z,77.22
2022-12-03T04:45:56.002Z,76.06
2022-12-03T04:48:23.128Z,75.95
2022-12-03T04:50:50.038Z,76.87
2022-12-03T04:53:17.073Z,77.03
2022-12-03T04:55:44.051Z,76.69
2022-12-03T04:58:11.009Z,76.94
2022-12-03T05:00:37.946Z,76.15
2022-12-03T05:03:04.965Z,76.96
2022-12-03T05:05:31.925Z,76.73
2022-12-03T05:07:58.987Z,77.00
2022-12-03T05:10:25.980Z,77.07
2022-12-03T05:12:52.930Z,77.21
2022-12-03T05:15:19.819Z,76.90
2022-12-03T05:17:46.770Z,76.76
2022-12-03T05:20:32.610Z,77.16
2022-12-03T05:22:59.596Z,77.50
2022-12-03T05:25:26.481Z,77.06
2022-12-03T05:27:53.730Z,76.52
2022-12-03T05:30:21.111Z,77.40
2022-12-03T05:32:48.062Z,77.01
2022-12-03T05:35:15.053Z,77.46
2022-12-03T05:37:42.083Z,78.08
2022-12-03T05:40:09.865Z,76.87
2022-12-03T05:42:54.953Z,78.32
2022-12-03T05:45:22.952Z,78.28
2022-12-03T05:47:49.877Z,77.68
2022-12-03T05:50:17.133Z,77.75
2022-12-03T05:52:44.104Z,77.72
2022-12-03T05:55:11.937Z,76.92
2022-12-03T05:57:38.936Z,77.13
2022-12-03T06:00:07.036Z,76.85
2022-12-03T06:02:39.580Z,77.32
2022-12-03T06:05:07.416Z,76.97
2022-12-03T06:07:34.425Z,76.34
2022-12-03T06:10:01.454Z,77.21
2022-12-03T06:12:28.407Z,76.21
2022-12-03T06:14:55.699Z,77.18
2022-12-03T06:17:22.827Z,77.03
2022-12-03T06:19:49.845Z,77.10
2022-12-03T06:22:16.754Z,77.12
2022-12-03T06:24:43.750Z,77.33
2022-12-03T06:27:11.275Z,77.42
2022-12-03T06:29:38.449Z,76.87
2022-12-03T06:32:07.749Z,77.33
2022-12-03T06:34:35.154Z,76.20
2022-12-03T06:37:02.040Z,76.58
2022-12-03T06:39:29.115Z,76.56
2022-12-03T06:41:56.278Z,76.43
2022-12-03T06:44:23.264Z,77.63
2022-12-03T06:46:50.385Z,77.61
2022-12-03T06:49:17.479Z,77.79
2022-12-03T06:51:44.877Z,77.50
2022-12-03T06:54:11.899Z,77.15
2022-12-03T06:56:44.841Z,76.98
2022-12-03T06:59:12.461Z,77.17
2022-12-03T07:01:39.420Z,77.32
2022-12-03T07:04:06.459Z,77.20
2022-12-03T07:06:33.494Z,77.78
2022-12-03T07:09:00.497Z,77.79
2022-12-03T07:11:40.140Z,78.09
2022-12-03T07:14:08.061Z,77.82
2022-12-03T07:16:35.968Z,78.15
2022-12-03T07:19:03.999Z,77.85
2022-12-03T07:21:30.986Z,78.68
2022-12-03T07:23:57.981Z,77.38
2022-12-03T07:26:27.344Z,78.12
2022-12-03T07:28:55.755Z,76.99
2022-12-03T07:31:22.708Z,76.94
2022-12-03T07:33:49.718Z,76.96
2022-12-03T07:36:16.769Z,77.12
2022-12-03T07:38:48.391Z,78.03
2022-12-03T07:41:15.822Z,78.43
2022-12-03T07:43:42.791Z,78.42
2022-12-03T07:46:09.807Z,77.31
2022-12-03T07:48:38.560Z,77.57
2022-12-03T07:51:05.856Z,77.78
2022-12-03T07:53:36.310Z,78.12
2022-12-03T07:56:04.766Z,77.58
2022-12-03T07:58:31.695Z,77.84
2022-12-03T08:00:58.972Z,77.41
2022-12-03T08:03:27.307Z,77.93
2022-12-03T08:05:54.341Z,78.13
2022-12-03T08:08:21.410Z,77.27
2022-12-03T08:10:48.436Z,78.49
2022-12-03T08:13:16.319Z,77.82
2022-12-03T08:15:43.420Z,78.13
2022-12-03T08:18:18.453Z,77.76
2022-12-03T08:20:48.313Z,77.70
2022-12-03T08:23:17.031Z,77.45
2022-12-03T08:25:44.316Z,77.60
2022-12-03T08:28:19.644Z,77.17
2022-12-03T08:31:05.953Z,77.49
2022-12-03T08:33:35.383Z,77.35
2022-12-03T08:36:11.637Z,76.83
2022-12-03T08:38:41.195Z,77.67
2022-12-03T08:41:37.244Z,77.76
2022-12-03T08:44:28.322Z,76.92
2022-12-03T08:47:10.348Z,77.32
2022-12-03T08:49:37.424Z,77.46
2022-12-03T08:52:16.212Z,77.67
2022-12-03T08:54:45.003Z,77.40
2022-12-03T08:57:32.604Z,78.39
2022-12-03T09:00:18.152Z,77.66
2022-12-03T09:02:48.988Z,77.79
2022-12-03T09:05:20.533Z,76.79
2022-12-03T09:07:48.728Z,76.88
2022-12-03T09:10:15.769Z,76.85
2022-12-03T09:12:42.759Z,77.88
2022-12-03T09:15:12.383Z,77.33
2022-12-03T09:17:39.783Z,76.83
2022-12-03T09:20:07.464Z,76.99
2022-12-03T09:22:34.475Z,77.63
2022-12-03T09:25:01.434Z,77.81
2022-12-03T09:27:28.454Z,76.65
2022-12-03T09:29:55.407Z,77.17
2022-12-03T09:32:22.523Z,77.39
2022-12-03T09:34:49.653Z,76.96
2022-12-03T09:37:16.631Z,76.91
2022-12-03T09:39:43.600Z,76.89
2022-12-03T09:42:12.460Z,77.80
2022-12-03T09:44:41.714Z,77.57
2022-12-03T09:47:08.906Z,77.32
2022-12-03T09:49:36.533Z,77.27
2022-12-03T09:52:03.859Z,76.98
2022-12-03T09:54:31.255Z,77.06
2022-12-03T09:57:00.570Z,77.23
2022-12-03T09:59:31.618Z,76.76
2022-12-03T10:01:58.825Z,76.37
2022-12-03T10:04:27.408Z,77.27
2022-12-03T10:06:54.790Z,77.12
2022-12-03T10:09:26.617Z,77.31
2022-12-03T10:11:53.673Z,77.19
2022-12-03T10:14:20.778Z,76.36
2022-12-03T10:16:47.879Z,76.89
2022-12-03T10:19:34.134Z,77.10
2022-12-03T10:22:01.174Z,76.78
2022-12-03T10:24:35.241Z,77.27
2022-12-03T10:27:29.526Z,77.01
2022-12-03T10:29:57.042Z,77.06
2022-12-03T10:32:29.002Z,77.88
2022-12-03T10:35:13.369Z,77.52
2022-12-03T10:38:03.414Z,77.62
2022-12-03T10:40:31.428Z,77.17
2022-12-03T10:43:20.409Z,77.14
2022-12-03T10:45:51.934Z,77.27
2022-12-03T10:48:20.658Z,77.11
2022-12-03T10:51:00.855Z,77.08
2022-12-03T10:53:30.297Z,77.40
2022-12-03T10:55:59.715Z,77.24
2022-12-03T10:58:31.318Z,78.00
2022-12-03T11:00:58.787Z,77.88
2022-12-03T11:03:28.178Z,77.27
2022-12-03T11:05:55.799Z,76.36
2022-12-03T11:08:24.712Z,77.88
2022-12-03T11:10:59.213Z,77.49
2022-12-03T11:13:50.206Z,76.67
2022-12-03T11:17:00.909Z,76.47
2022-12-03T11:19:37.844Z,76.85
2022-12-03T11:22:24.761Z,76.87
2022-12-03T11:25:31.615Z,77.56
2022-12-03T11:28:13.632Z,77.44
2022-12-03T11:30:52.293Z,76.87
2022-12-03T11:33:25.754Z,77.24
2022-12-03T11:36:05.296Z,77.60
2022-12-03T11:38:38.465Z,77.54
2022-12-03T11:41:17.219Z,76.51
2022-12-03T11:43:57.403Z,77.21
2022-12-03T11:46:36.619Z,77.07
2022-12-03T11:49:23.275Z,77.20
2022-12-03T11:51:50.278Z,77.39
2022-12-03T11:54:18.284Z,77.12
2022-12-03T11:56:46.301Z,77.68
2022-12-03T11:59:13.545Z,77.18
2022-12-03T12:01:42.243Z,76.79
2022-12-03T12:04:30.649Z,77.25
2022-12-03T12:06:57.808Z,77.60
2022-12-03T12:09:54.013Z,77.31
2022-12-03T12:12:39.051Z,76.90
2022-12-03T12:15:34.331Z,77.45
2022-12-03T12:18:38.821Z,76.26
2022-12-03T12:21:43.266Z,76.40
2022-12-03T12:24:31.991Z,77.05
2022-12-03T12:27:00.907Z,77.22
2022-12-03T12:29:28.049Z,75.92
2022-12-03T12:32:08.062Z,76.61
2022-12-03T12:34:39.244Z,77.08
2022-12-03T12:37:32.702Z,76.58
2022-12-03T12:40:00.137Z,77.51
2022-12-03T12:42:37.323Z,77.20
2022-12-03T12:45:16.498Z,77.22
2022-12-03T12:47:48.004Z,77.21
2022-12-03T12:50:16.197Z,76.85
2022-12-03T12:52:49.260Z,76.08
2022-12-03T12:55:17.524Z,76.91
2022-12-03T12:57:44.576Z,76.64
2022-12-03T13:00:19.252Z,76.44
2022-12-03T13:02:55.704Z,77.65
2022-12-03T13:05:23.542Z,77.14
2022-12-03T13:07:50.547Z,76.45
2022-12-03T13:10:35.694Z,77.20
2022-12-03T13:13:18.534Z,76.13
2022-12-03T13:15:52.289Z,77.18
2022-12-03T13:18:24.576Z,77.51
2022-12-03T13:20:51.530Z,78.04
2022-12-03T13:23:34.835Z,76.63
2022-12-03T13:26:21.459Z,76.74
2022-12-03T13:28:52.308Z,77.31
2022-12-03T13:31:23.335Z,77.11
2022-12-03T13:33:50.806Z,76.88
2022-12-03T13:36:18.125Z,77.32
2022-12-03T13:38:46.363Z,76.25
2022-12-03T13:41:35.262Z,76.26
2022-12-03T13:44:02.283Z,76.20
2022-12-03T13:46:29.393Z,76.71
2022-12-03T13:49:01.562Z,77.26
2022-12-03T13:51:30.699Z,77.10
2022-12-03T13:53:58.459Z,77.87
2022-12-03T13:56:32.519Z,76.67
2022-12-03T13:59:00.463Z,77.44
2022-12-03T14:01:28.079Z,76.95
2022-12-03T14:03:55.078Z,76.98
2022-12-03T14:06:22.162Z,76.69
2022-12-03T14:08:49.489Z,76.78
2022-12-03T14:11:35.093Z,77.08
2022-12-03T14:14:02.143Z,77.73
2022-12-03T14:16:29.162Z,77.07
2022-12-03T14:18:56.282Z,77.08
2022-12-03T14:21:23.159Z,76.54
2022-12-03T14:23:50.119Z,76.85
2022-12-03T14:26:17.124Z,76.43
2022-12-03T14:28:44.019Z,76.11
2022-12-03T14:31:10.920Z,76.04
2022-12-03T14:33:37.945Z,76.33
2022-12-03T14:36:05.206Z,75.65
2022-12-03T14:38:32.322Z,76.11
2022-12-03T14:40:59.317Z,76.02
2022-12-03T14:43:26.421Z,76.58
2022-12-03T14:45:55.568Z,76.65
2022-12-03T14:48:22.620Z,76.66
2022-12-03T14:50:49.575Z,77.18
2022-12-03T14:53:16.631Z,76.91
2022-12-03T14:55:47.372Z,76.62
2022-12-03T14:58:14.484Z,76.12
2022-12-03T15:00:41.456Z,76.90
2022-12-03T15:03:08.431Z,76.77
2022-12-03T15:05:38.048Z,77.54
2022-12-03T15:08:06.565Z,76.94
2022-12-03T15:10:35.180Z,76.47
2022-12-03T15:13:20.890Z,76.72
2022-12-03T15:15:50.903Z,76.69
2022-12-03T15:18:17.946Z,76.98
2022-12-03T15:20:45.051Z,76.62
2022-12-03T15:23:14.539Z,77.32
2022-12-03T15:25:43.877Z,76.26
2022-12-03T15:28:12.304Z,76.60
2022-12-03T15:30:39.284Z,76.65
2022-12-03T15:33:06.553Z,76.75
2022-12-03T15:35:33.544Z,77.58
2022-12-03T15:38:00.542Z,76.33
2022-12-03T15:40:29.305Z,76.35
2022-12-03T15:42:56.257Z,76.63
2022-12-03T15:45:23.535Z,76.95
2022-12-03T15:47:54.459Z,76.76
2022-12-03T15:50:24.275Z,77.42
2022-12-03T15:52:51.288Z,76.04
2022-12-03T15:55:18.646Z,76.70
2022-12-03T15:57:51.025Z,76.12
2022-12-03T16:00:18.373Z,76.75
2022-12-03T16:02:52.242Z,77.11
2022-12-03T16:05:20.182Z,76.40
2022-12-03T16:07:50.368Z,76.55
2022-12-03T16:10:21.600Z,75.55
2022-12-03T16:12:51.306Z,75.57
2022-12-03T16:15:20.992Z,76.42
2022-12-03T16:18:01.278Z,75.90
2022-12-03T16:20:32.162Z,76.44
2022-12-03T16:22:59.199Z,75.76
2022-12-03T16:25:28.962Z,76.32
2022-12-03T16:28:02.329Z,76.45
2022-12-03T16:30:31.879Z,76.64
2022-12-03T16:32:59.079Z,76.23
2022-12-03T16:35:26.517Z,76.38
2022-12-03T16:37:59.599Z,76.66
2022-12-03T16:40:31.824Z,76.83
2022-12-03T16:42:59.035Z,76.56
2022-12-03T16:45:46.494Z,76.08
2022-12-03T16:48:21.402Z,76.17
2022-12-03T16:50:48.646Z,76.17
2022-12-03T16:53:17.919Z,76.82
2022-12-03T16:55:47.192Z,77.47
2022-12-03T16:58:21.375Z,76.47
2022-12-03T17:00:49.158Z,76.46
2022-12-03T17:03:18.017Z,76.37
2022-12-03T17:05:45.537Z,76.11
2022-12-03T17:08:12.881Z,77.19
2022-12-03T17:10:40.113Z,76.95
2022-12-03T17:13:09.758Z,77.42
2022-12-03T17:15:37.458Z,76.54
2022-12-03T17:18:04.457Z,77.05
2022-12-03T17:20:32.061Z,77.16
2022-12-03T17:22:59.533Z,76.62
2022-12-03T17:25:27.056Z,77.37
2022-12-03T17:27:54.016Z,76.57
2022-12-03T17:30:21.144Z,76.33
2022-12-03T17:32:50.598Z,77.04
2022-12-03T17:35:17.984Z,76.57
2022-12-03T17:37:45.084Z,76.04
2022-12-03T17:40:13.129Z,76.18
2022-12-03T17:42:40.229Z,75.73
2022-12-03T17:45:07.866Z,76.27
2022-12-03T17:47:34.774Z,75.75
2022-12-03T17:50:01.961Z,75.76
2022-12-03T17:52:28.931Z,76.59
2022-12-03T17:55:10.823Z,76.85
2022-12-03T17:57:39.106Z,76.81
2022-12-03T18:00:06.626Z,76.71
2022-12-03T18:02:39.306Z,76.84
2022-12-03T18:05:06.469Z,76.77
2022-12-03T18:07:34.168Z,76.86
2022-12-03T18:10:01.339Z,77.33
2022-12-03T18:12:28.449Z,76.94
2022-12-03T18:14:55.472Z,76.64
2022-12-03T18:17:23.829Z,77.36
2022-12-03T18:19:50.862Z,77.21
2022-12-03T18:22:18.317Z,77.25
2022-12-03T18:24:47.553Z,77.31
2022-12-03T18:27:17.450Z,77.64
2022-12-03T18:29:44.376Z,77.69
2022-12-03T18:32:27.105Z,78.00
2022-12-03T18:34:55.163Z,78.74
2022-12-03T18:37:22.145Z,78.04
2022-12-03T18:39:49.325Z,78.39
2022-12-03T18:42:20.451Z,77.86
2022-12-03T18:44:50.043Z,77.67
2022-12-03T18:47:19.211Z,77.26
2022-12-03T18:49:55.881Z,77.90
2022-12-03T18:52:23.797Z,77.49
2022-12-03T18:54:50.787Z,76.44
2022-12-03T18:57:18.085Z,77.26
2022-12-03T18:59:45.213Z,77.59
2022-12-03T19:05:09.092Z,77.27
2022-12-03T19:07:36.200Z,76.20
2022-12-03T19:10:03.559Z,76.76
2022-12-03T19:12:31.372Z,76.71
2022-12-03T19:14:59.729Z,77.19
2022-12-03T19:17:27.522Z,77.21
2022-12-03T19:19:55.237Z,77.25
2022-12-03T19:22:22.653Z,76.84
2022-12-03T19:24:50.227Z,77.39
2022-12-03T19:27:17.230Z,77.26
2022-12-03T19:29:44.630Z,76.85
2022-12-03T19:32:11.534Z,76.88
2022-12-03T19:34:38.499Z,77.01
2022-12-03T19:37:05.561Z,76.95
2022-12-03T19:39:33.397Z,77.73
2022-12-03T19:42:00.338Z,76.62
2022-12-03T19:44:27.325Z,76.28
2022-12-03T19:46:54.530Z,76.96
2022-12-03T19:49:21.628Z,77.19
2022-12-03T19:51:48.726Z,77.26
2022-12-03T19:54:15.788Z,77.57
2022-12-03T19:56:43.186Z,77.22
2022-12-03T19:59:13.418Z,76.83
2022-12-03T20:01:40.966Z,77.18
2022-12-03T20:04:08.177Z,76.78
2022-12-03T20:06:37.619Z,77.29
2022-12-03T20:09:07.739Z,76.90
2022-12-03T20:11:34.846Z,77.30
2022-12-03T20:14:04.149Z,77.51
2022-12-03T20:16:31.160Z,77.64
2022-12-03T20:19:02.612Z,77.83
2022-12-03T20:21:30.820Z,76.64
2022-12-03T20:23:58.025Z,77.09
2022-12-03T20:26:25.078Z,76.72
2022-12-03T20:28:53.567Z,77.07
2022-12-03T20:31:21.607Z,77.50
2022-12-03T20:33:49.903Z,77.39
2022-12-03T20:36:18.558Z,77.65
2022-12-03T20:38:45.536Z,76.96
2022-12-03T20:41:14.214Z,77.18
2022-12-03T20:43:41.534Z,76.88
2022-12-03T20:46:27.649Z,76.97
2022-12-03T20:48:55.277Z,77.53
2022-12-03T20:51:24.505Z,77.34
2022-12-03T20:53:51.522Z,77.01
2022-12-03T20:56:22.032Z,78.00
2022-12-03T20:58:49.456Z,78.16
2022-12-03T21:01:24.422Z,77.81
2022-12-03T21:03:52.018Z,77.27
2022-12-03T21:06:19.093Z,77.97
2022-12-03T21:08:46.328Z,77.50
2022-12-03T21:11:20.471Z,77.71
2022-12-03T21:13:47.626Z,77.69
2022-12-03T21:16:17.049Z,77.94
2022-12-03T21:18:44.188Z,76.84
2022-12-03T21:21:11.674Z,77.21
2022-12-03T21:23:38.732Z,76.76
2022-12-03T21:26:12.627Z,77.68
2022-12-03T21:28:40.935Z,77.43
2022-12-03T21:31:10.250Z,76.70
2022-12-03T21:33:37.511Z,77.27
2022-12-03T21:36:05.127Z,77.11
2022-12-03T21:38:32.467Z,77.92
2022-12-03T21:40:59.741Z,76.69
2022-12-03T21:43:27.006Z,77.14
2022-12-03T21:45:54.052Z,77.44
2022-12-03T21:48:21.332Z,77.91
2022-12-03T21:51:04.908Z,77.46
2022-12-03T21:53:32.504Z,78.09
2022-12-03T21:55:59.849Z,77.72
2022-12-03T21:58:26.826Z,77.56
2022-12-03T22:00:53.934Z,77.01
2022-12-03T22:03:20.971Z,77.51
2022-12-03T22:05:49.102Z,77.52
2022-12-03T22:08:16.457Z,76.77
2022-12-03T22:10:43.504Z,77.50
2022-12-03T22:13:10.540Z,77.40
2022-12-03T22:15:40.606Z,77.11
2022-12-03T22:18:07.676Z,77.32
2022-12-03T22:20:34.645Z,77.45
2022-12-03T22:23:01.616Z,78.25
2022-12-03T22:25:28.905Z,78.29
2022-12-03T22:27:55.941Z,77.79
2022-12-03T22:30:22.860Z,77.78
2022-12-03T22:32:50.064Z,77.14
2022-12-03T22:35:17.031Z,78.41
2022-12-03T22:37:44.027Z,77.68
2022-12-03T22:40:11.401Z,77.49
2022-12-03T22:42:38.368Z,78.13
2022-12-03T22:45:05.869Z,78.29
2022-12-03T22:47:32.995Z,77.23
2022-12-03T22:49:59.924Z,77.46
2022-12-03T22:52:26.966Z,78.00
2022-12-03T22:54:53.975Z,77.88
2022-12-03T22:57:21.006Z,77.86
2022-12-03T22:59:47.945Z,77.70
2022-12-03T23:02:15.023Z,77.41
2022-12-03T23:04:41.961Z,77.31
2022-12-03T23:07:08.938Z,77.19
2022-12-03T23:09:35.920Z,77.59
2022-12-03T23:12:02.927Z,76.59
2022-12-03T23:14:29.897Z,77.20
2022-12-03T23:16:56.882Z,76.43
2022-12-03T23:19:23.987Z,77.02
2022-12-03T23:21:50.950Z,77.17
2022-12-03T23:24:17.927Z,77.62
2022-12-03T23:26:44.922Z,76.51
2022-12-03T23:29:12.056Z,76.87
2022-12-03T23:31:39.048Z,77.23
2022-12-03T23:34:06.284Z,76.65
2022-12-03T23:36:33.978Z,76.67
2022-12-03T23:39:01.030Z,76.64
2022-12-03T23:41:28.057Z,77.29
2022-12-03T23:43:55.112Z,76.94
2022-12-03T23:46:23.985Z,77.41
2022-12-03T23:48:51.431Z,76.48
2022-12-03T23:51:20.665Z,76.70
2022-12-03T23:53:47.890Z,76.93
2022-12-03T23:56:20.084Z,77.00
2022-12-03T23:58:47.067Z,76.89
